Time;durP1;ratioP1;P1;durP2;ratioP2;P2;SDS_P1;SDS_P2;PMS_P1;PMS_P2;Temp;Humidity;BMP_temperature;BMP_pressure;BME280_temperature;BME280_humidity;BME280_pressure;Samples;Min_cycle;Max_cycle;Signal;HPM_P1;HPM_P2
2024/03/13 00:00:16;;;;;;;107.00;61.20;;;;;;;7.31;87.23;101186.30;105052;1254;61391;-68
2024/03/13 00:03:03;;;;;;;109.10;61.20;;;;;;;7.31;87.34;101185.80;108845;1253;139096;-69
2024/03/13 00:05:30;;;;;;;102.90;57.20;;;;;;;7.35;87.44;101189.32;104988;1254;73499;-69
2024/03/13 00:07:57;;;;;;;108.60;57.80;;;;;;;7.36;87.29;101187.95;104891;1257;139292;-69
2024/03/13 00:10:24;;;;;;;100.10;56.20;;;;;;;7.36;87.42;101190.95;104869;1254;72755;-70
2024/03/13 00:12:51;;;;;;;107.70;57.30;;;;;;;7.35;87.30;101190.73;105010;1254;61256;-68
2024/03/13 00:15:17;;;;;;;97.50;54.80;;;;;;;7.35;87.31;101191.76;105406;1258;139519;-68
2024/03/13 00:17:45;;;;;;;99.40;56.10;;;;;;;7.36;87.46;101194.77;104961;1255;74087;-68
2024/03/13 00:20:12;;;;;;;94.00;53.30;;;;;;;7.34;87.43;101190.86;104983;1257;139618;-68
2024/03/13 00:22:40;;;;;;;94.30;51.70;;;;;;;7.32;87.28;101192.84;107723;1254;72519;-67
2024/03/13 00:25:11;;;;;;;91.90;53.20;;;;;;;7.32;87.36;101190.75;109117;1254;59188;-67
2024/03/13 00:27:39;;;;;;;89.20;50.90;;;;;;;7.33;87.42;101193.25;109001;1254;138760;-67
2024/03/13 00:30:08;;;;;;;84.70;49.80;;;;;;;7.37;87.55;101192.71;109150;1254;73809;-67
2024/03/13 00:32:35;;;;;;;82.80;49.30;;;;;;;7.39;87.48;101191.77;105808;1256;138783;-67
2024/03/13 00:35:03;;;;;;;80.70;47.90;;;;;;;7.44;87.60;101192.48;104941;1254;73532;-67
2024/03/13 00:37:29;;;;;;;79.50;45.70;;;;;;;7.47;87.62;101191.73;105030;1258;61214;-68
2024/03/13 00:39:58;;;;;;;82.50;46.50;;;;;;;7.48;87.58;101189.01;104841;1259;139446;-68
2024/03/13 00:42:25;;;;;;;82.80;45.00;;;;;;;7.50;87.69;101188.59;109184;1254;74982;-68
2024/03/13 00:44:53;;;;;;;86.00;48.60;;;;;;;7.52;87.64;101191.46;105601;1254;139214;-67
2024/03/13 00:47:22;;;;;;;74.30;45.00;;;;;;;7.54;87.54;101191.39;104988;1255;72328;-68
2024/03/13 00:49:52;;;;;;;82.30;46.30;;;;;;;7.56;87.70;101188.85;109012;1253;139982;-69
2024/03/13 00:52:19;;;;;;;84.70;47.20;;;;;;;7.59;87.66;101187.77;109061;1256;59458;-67
2024/03/13 00:54:49;;;;;;;82.50;47.30;;;;;;;7.62;87.61;101183.16;106176;1258;76312;-67
2024/03/13 00:57:17;;;;;;;83.40;44.50;;;;;;;7.65;87.61;101179.09;104903;1257;139072;-67
2024/03/13 00:59:43;;;;;;;78.30;46.90;;;;;;;7.68;87.65;101177.48;106529;1255;73592;-67
2024/03/13 01:02:10;;;;;;;84.50;45.50;;;;;;;7.69;87.50;101175.79;104875;1255;139330;-67
2024/03/13 01:04:37;;;;;;;82.60;44.40;;;;;;;7.68;87.42;101176.11;105062;1257;61147;-68
2024/03/13 01:07:06;;;;;;;80.70;46.00;;;;;;;7.69;87.42;101174.91;109216;1254;75290;-68
2024/03/13 01:09:33;;;;;;;88.70;47.80;;;;;;;7.69;87.39;101174.37;109052;1254;139086;-68
2024/03/13 01:12:00;;;;;;;85.30;47.60;;;;;;;7.69;87.45;101176.48;109069;1254;73977;-69
2024/03/13 01:14:27;;;;;;;78.00;45.10;;;;;;;7.70;87.42;101174.97;108928;1255;139769;-69
2024/03/13 01:16:55;;;;;;;86.80;45.00;;;;;;;7.71;87.38;101173.26;109150;1254;59218;-69
2024/03/13 01:19:22;;;;;;;85.90;45.60;;;;;;;7.73;87.38;101171.59;109175;1254;75050;-68
2024/03/13 01:21:53;;;;;;;74.80;42.90;;;;;;;7.76;87.44;101170.84;109118;1257;138578;-67
2024/03/13 01:24:20;;;;;;;75.70;43.40;;;;;;;7.78;87.26;101172.33;109150;1254;73118;-65
2024/03/13 01:26:52;;;;;;;79.00;45.60;;;;;;;7.81;87.41;101172.27;109030;1254;138610;-66
2024/03/13 01:29:19;;;;;;;84.30;44.80;;;;;;;7.85;87.41;101171.25;109126;1254;59271;-66
2024/03/13 01:31:45;;;;;;;84.50;45.00;;;;;;;7.86;87.17;101170.55;109084;1254;75036;-67
2024/03/13 01:34:12;;;;;;;87.00;47.00;;;;;;;7.86;87.13;101171.77;109094;1257;138753;-67
2024/03/13 01:39:24;;;;;;;81.80;43.80;;;;;;;7.85;87.08;101174.02;109073;1254;139244;-65
2024/03/13 01:56:22;;;;;;;77.50;43.40;;;;;;;7.91;87.42;101173.38;104443;1259;138969;-67
2024/03/13 01:58:52;;;;;;;81.50;46.00;;;;;;;7.90;87.21;101176.31;108770;1260;73962;-67
2024/03/13 02:04:03;;;;;;;83.70;45.60;;;;;;;7.88;87.15;101176.25;109154;1253;139217;-66
2024/03/13 02:06:31;;;;;;;93.30;47.40;;;;;;;7.87;87.05;101175.67;109134;1253;58981;-66
2024/03/13 02:08:58;;;;;;;88.20;47.60;;;;;;;7.84;87.07;101176.61;109076;1254;138933;-66
2024/03/13 02:11:25;;;;;;;82.20;48.50;;;;;;;7.85;87.20;101176.48;109064;1255;74681;-66
2024/03/13 02:13:52;;;;;;;88.80;47.30;;;;;;;7.87;87.23;101176.36;109098;1254;139052;-64
2024/03/13 02:16:18;;;;;;;94.20;51.10;;;;;;;7.87;87.11;101178.81;109218;1254;71858;-64
2024/03/13 02:18:47;;;;;;;89.20;49.60;;;;;;;7.85;87.04;101181.73;109185;1253;59347;-65
2024/03/13 02:21:14;;;;;;;90.10;49.50;;;;;;;7.84;87.18;101182.91;109084;1254;139200;-66
2024/03/13 02:23:40;;;;;;;89.60;48.80;;;;;;;7.85;87.23;101183.09;109151;1253;74641;-66
2024/03/13 02:26:07;;;;;;;103.20;50.80;;;;;;;7.86;87.27;101182.80;109034;1255;139403;-66
2024/03/13 02:28:35;;;;;;;93.20;49.20;;;;;;;7.85;87.10;101184.70;108952;1254;72691;-67
2024/03/13 02:31:02;;;;;;;101.10;51.00;;;;;;;7.87;87.29;101191.92;109216;1254;59285;-67
2024/03/13 02:33:29;;;;;;;88.70;48.40;;;;;;;7.90;87.37;101190.66;109096;1254;138819;-66
2024/03/13 02:35:55;;;;;;;95.60;51.00;;;;;;;7.92;87.43;101194.23;109036;1254;74681;-67
2024/03/13 02:38:22;;;;;;;92.10;53.10;;;;;;;7.96;87.44;101195.66;109133;1254;138820;-64
2024/03/13 02:40:49;;;;;;;91.30;51.70;;;;;;;7.97;87.29;101196.56;109224;1254;72701;-65
2024/03/13 02:43:15;;;;;;;89.90;48.90;;;;;;;7.96;87.17;101197.56;105755;1256;61348;-65
2024/03/13 02:45:42;;;;;;;96.00;50.70;;;;;;;7.95;87.21;101200.85;104717;1258;138735;-65
2024/03/13 02:48:11;;;;;;;88.50;46.90;;;;;;;7.98;87.38;101198.35;104960;1254;74909;-66
2024/03/13 02:50:42;;;;;;;91.70;48.40;;;;;;;7.96;87.12;101196.69;104909;1255;139077;-66
2024/03/13 02:53:09;;;;;;;131.20;69.30;;;;;;;7.93;87.22;101195.87;105024;1256;73286;-66
2024/03/13 02:55:36;;;;;;;133.50;69.50;;;;;;;7.93;87.26;101197.46;105054;1258;61351;-67
2024/03/13 02:58:03;;;;;;;135.40;67.50;;;;;;;7.93;87.45;101199.39;104931;1256;138936;-67
2024/03/13 03:00:30;;;;;;;112.40;59.60;;;;;;;7.94;87.37;101200.27;105161;1258;75236;-66
2024/03/13 03:02:57;;;;;;;104.10;58.20;;;;;;;7.92;87.27;101203.32;104754;1259;139019;-67
2024/03/13 03:05:24;;;;;;;108.30;54.90;;;;;;;7.88;87.40;101200.40;105911;1254;73657;-66
2024/03/13 03:07:51;;;;;;;110.30;57.10;;;;;;;7.86;87.45;101200.64;104951;1253;138991;-67
2024/03/13 03:10:18;;;;;;;102.10;54.90;;;;;;;7.89;87.69;101201.45;105536;1255;61324;-66
2024/03/13 03:12:45;;;;;;;105.10;54.60;;;;;;;7.91;87.73;101199.65;104978;1258;74113;-67
2024/03/13 03:15:11;;;;;;;107.00;53.40;;;;;;;7.92;87.51;101202.44;104870;1255;139138;-66
2024/03/13 03:17:38;;;;;;;96.80;51.80;;;;;;;7.89;87.52;101199.69;104952;1254;73476;-67
2024/03/13 03:20:06;;;;;;;99.60;52.40;;;;;;;7.86;87.43;101206.20;104962;1255;139173;-66
2024/03/13 03:22:32;;;;;;;85.80;49.00;;;;;;;7.84;87.52;101204.58;109067;1255;59003;-67
2024/03/13 03:24:59;;;;;;;97.10;51.90;;;;;;;7.84;87.52;101202.98;109095;1254;75259;-66
2024/03/13 03:27:26;;;;;;;91.90;51.40;;;;;;;7.83;87.45;101203.11;107563;1257;139568;-66
2024/03/13 03:29:53;;;;;;;90.80;51.00;;;;;;;7.81;87.39;101203.40;105023;1255;73236;-66
2024/03/13 03:32:20;;;;;;;85.00;50.80;;;;;;;7.82;87.41;101204.81;104746;1256;139047;-67
2024/03/13 03:34:46;;;;;;;80.80;45.80;;;;;;;7.81;87.48;101202.86;104891;1254;61367;-68
2024/03/13 03:37:17;;;;;;;79.60;45.90;;;;;;;7.78;87.34;101202.07;104899;1256;74931;-66
2024/03/13 03:39:43;;;;;;;84.30;45.80;;;;;;;7.78;87.43;101203.08;104792;1258;138915;-66
2024/03/13 03:42:10;;;;;;;75.50;44.00;;;;;;;7.78;87.51;101203.77;104829;1258;72857;-66
2024/03/13 03:44:37;;;;;;;81.30;44.70;;;;;;;7.76;87.38;101208.41;105029;1257;138910;-66
2024/03/13 03:47:04;;;;;;;77.70;45.00;;;;;;;7.74;87.37;101205.71;104951;1254;61219;-65
2024/03/13 03:49:31;;;;;;;73.20;42.30;;;;;;;7.73;87.40;101208.60;105040;1256;75367;-68
2024/03/13 03:51:58;;;;;;;73.70;41.80;;;;;;;7.71;87.40;101210.63;104908;1258;138704;-67
2024/03/13 03:54:24;;;;;;;69.30;41.20;;;;;;;7.71;87.41;101208.35;105003;1255;72641;-68
2024/03/13 03:56:51;;;;;;;64.40;38.20;;;;;;;7.69;87.35;101209.15;105110;1258;138928;-68
2024/03/13 03:59:18;;;;;;;66.60;38.80;;;;;;;7.67;87.23;101210.45;104848;1255;61636;-68
2024/03/13 04:01:45;;;;;;;61.60;37.50;;;;;;;7.63;87.01;101209.56;104995;1255;75569;-68
2024/03/13 04:04:13;;;;;;;58.60;36.40;;;;;;;7.61;87.16;101208.95;109173;1253;138673;-68
2024/03/13 04:06:41;;;;;;;55.40;34.30;;;;;;;7.58;87.00;101208.32;109045;1254;72848;-68
2024/03/13 04:09:18;;;;;;;51.70;33.80;;;;;;;7.55;87.03;101208.55;108439;1257;139157;-68
2024/03/13 04:11:45;;;;;;;52.90;32.80;;;;;;;7.52;86.76;101211.52;105382;1259;61215;-68
2024/03/13 04:14:12;;;;;;;48.60;32.50;;;;;;;7.47;86.71;101214.48;104793;1256;138858;-69
2024/03/13 04:16:41;;;;;;;51.20;33.20;;;;;;;7.48;86.95;101215.53;105105;1258;66778;-69
2024/03/13 04:19:10;;;;;;;53.10;33.60;;;;;;;7.46;86.86;101216.35;105178;1258;72636;-68
2024/03/13 04:21:38;;;;;;;51.50;32.10;;;;;;;7.41;86.67;101221.55;106079;1261;139119;-68
2024/03/13 04:24:08;;;;;;;50.20;31.90;;;;;;;7.36;86.69;101221.16;105486;1257;61157;-69
2024/03/13 04:26:41;;;;;;;44.50;30.80;;;;;;;7.36;86.90;101218.71;104952;1258;138982;-69
2024/03/13 04:29:07;;;;;;;48.10;31.00;;;;;;;7.36;86.82;101223.07;109261;1254;66061;-68
2024/03/13 04:31:35;;;;;;;50.40;32.00;;;;;;;7.35;86.78;101221.61;109262;1254;71636;-68
2024/03/13 04:34:01;;;;;;;49.30;31.80;;;;;;;7.35;86.91;101225.44;105589;1257;139368;-67
2024/03/13 04:36:28;;;;;;;48.60;30.70;;;;;;;7.34;86.93;101222.11;105154;1254;61157;-67
2024/03/13 04:38:55;;;;;;;48.20;31.40;;;;;;;7.35;86.91;101225.29;104940;1256;139209;-69
2024/03/13 04:41:22;;;;;;;42.70;29.70;;;;;;;7.35;86.85;101226.16;104953;1256;66804;-69
2024/03/13 04:43:49;;;;;;;46.90;31.00;;;;;;;7.34;86.80;101222.45;104937;1256;139499;-69
2024/03/13 04:46:19;;;;;;;43.30;28.50;;;;;;;7.32;86.78;101223.41;105316;1255;62791;-68
2024/03/13 04:48:45;;;;;;;46.20;29.90;;;;;;;7.32;86.87;101228.12;105102;1253;61718;-67
2024/03/13 04:51:15;;;;;;;42.00;28.50;;;;;;;7.33;86.80;101234.45;104813;1256;138658;-70
2024/03/13 04:53:45;;;;;;;42.40;29.70;;;;;;;7.28;86.56;101233.49;104862;1259;66167;-69
2024/03/13 04:56:12;;;;;;;44.30;30.60;;;;;;;7.21;86.46;101237.73;105637;1256;139136;-67
2024/03/13 04:58:39;;;;;;;46.70;30.20;;;;;;;7.16;86.52;101240.12;104983;1258;61158;-68
2024/03/13 05:01:07;;;;;;;43.70;29.20;;;;;;;7.13;86.53;101240.84;104790;1258;61561;-67
2024/03/13 05:03:35;;;;;;;45.50;29.70;;;;;;;7.08;86.52;101243.20;109080;1253;138938;-69
2024/03/13 05:06:02;;;;;;;45.40;29.70;;;;;;;7.03;86.55;101243.70;109090;1255;67895;-68
2024/03/13 05:08:29;;;;;;;47.50;29.70;;;;;;;6.98;86.49;101240.52;106999;1256;139008;-68
2024/03/13 05:10:56;;;;;;;43.20;29.40;;;;;;;6.94;86.55;101244.69;104939;1258;61226;-68
2024/03/13 05:13:23;;;;;;;45.50;31.00;;;;;;;6.96;86.71;101246.65;109198;1254;60575;-68
2024/03/13 05:15:51;;;;;;;47.40;30.30;;;;;;;6.97;86.82;101249.88;106259;1256;138895;-67
2024/03/13 05:18:19;;;;;;;49.60;31.50;;;;;;;6.99;86.82;101252.92;106451;1255;66372;-67
2024/03/13 05:20:46;;;;;;;55.00;33.30;;;;;;;7.01;86.84;101253.02;104870;1258;140501;-67
2024/03/13 05:23:13;;;;;;;75.80;43.40;;;;;;;6.98;86.84;101252.70;105111;1258;61392;-67
2024/03/13 05:25:39;;;;;;;79.80;46.10;;;;;;;6.92;86.73;101254.52;104992;1256;61130;-67
2024/03/13 05:28:06;;;;;;;91.60;49.90;;;;;;;6.87;87.06;101262.46;104851;1255;138663;-63
2024/03/13 05:30:33;;;;;;;95.70;53.70;;;;;;;6.82;87.12;101266.59;105001;1259;67542;-64
2024/03/13 05:33:00;;;;;;;98.40;57.00;;;;;;;6.79;87.47;101271.67;104823;1254;139542;-64
2024/03/13 05:35:26;;;;;;;98.90;56.50;;;;;;;6.77;87.60;101275.76;105007;1254;61331;-63
2024/03/13 05:37:54;;;;;;;98.90;56.60;;;;;;;6.72;87.64;101279.01;104939;1256;140043;-63
2024/03/13 05:40:21;;;;;;;95.80;55.80;;;;;;;6.67;87.83;101280.19;104892;1254;73369;-63
2024/03/13 05:42:48;;;;;;;100.40;55.40;;;;;;;6.69;88.05;101283.57;104858;1260;65635;-64
2024/03/13 05:45:15;;;;;;;86.90;52.50;;;;;;;6.66;88.05;101286.21;104308;1256;139105;-64
2024/03/13 05:47:42;;;;;;;93.90;53.60;;;;;;;6.65;88.16;101281.65;104905;1256;61392;-64
2024/03/13 05:50:12;;;;;;;88.50;52.30;;;;;;;6.59;87.97;101280.67;104694;1256;139428;-63
2024/03/13 05:52:39;;;;;;;93.40;53.60;;;;;;;6.51;87.99;101281.29;106015;1256;75319;-64
2024/03/13 05:55:06;;;;;;;89.50;50.40;;;;;;;6.44;88.18;101283.06;104981;1258;66865;-63
2024/03/13 05:57:33;;;;;;;90.30;52.70;;;;;;;6.42;88.34;101283.65;104935;1258;138817;-63
2024/03/13 06:00:03;;;;;;;91.50;52.50;;;;;;;6.42;88.56;101291.17;104919;1256;61363;-62
2024/03/13 06:02:30;;;;;;;90.80;55.00;;;;;;;6.43;88.68;101292.23;104796;1258;139120;-67
2024/03/13 06:05:09;;;;;;;94.40;54.10;;;;;;;6.47;88.86;101295.02;109050;1254;74754;-64
2024/03/13 06:07:36;;;;;;;85.00;51.50;;;;;;;6.51;88.99;101294.69;105724;1258;66208;-67
2024/03/13 06:10:05;;;;;;;88.40;54.50;;;;;;;6.47;88.75;101294.69;104552;1256;138800;-65
2024/03/13 06:12:33;;;;;;;81.10;50.70;;;;;;;6.45;88.70;101295.27;108496;1255;59305;-65
2024/03/13 06:15:06;;;;;;;82.40;50.40;;;;;;;6.34;88.50;101295.46;108713;1253;139335;-64
2024/03/13 06:17:34;;;;;;;77.80;50.70;;;;;;;6.32;88.86;101295.17;107305;1257;74517;-63
2024/03/13 06:20:03;;;;;;;80.20;49.70;;;;;;;6.32;88.74;101298.29;109061;1254;139089;-63
2024/03/13 06:22:30;;;;;;;77.10;48.40;;;;;;;6.32;88.81;101300.03;109132;1254;71267;-65
2024/03/13 06:25:00;;;;;;;82.30;51.00;;;;;;;6.32;88.83;101301.95;109234;1253;59447;-65
2024/03/13 06:27:30;;;;;;;77.70;49.10;;;;;;;6.31;88.73;101304.70;107280;1254;138804;-68
2024/03/13 06:29:58;;;;;;;78.90;50.30;;;;;;;6.32;88.92;101301.77;104905;1256;74578;-69
2024/03/13 06:32:25;;;;;;;83.30;52.20;;;;;;;6.30;88.74;101301.34;104802;1258;139743;-72
2024/03/13 06:34:54;;;;;;;75.80;49.10;;;;;;;6.31;89.00;101300.33;105226;1258;72687;-72
2024/03/13 06:37:24;;;;;;;79.20;50.80;;;;;;;6.31;89.03;101299.13;105148;1254;61250;-72
2024/03/13 06:39:53;;;;;;;85.50;54.20;;;;;;;6.33;89.06;101301.50;105073;1253;138661;-71
2024/03/13 06:42:20;;;;;;;83.70;49.50;;;;;;;6.35;89.24;101299.16;105158;1261;74966;-71
2024/03/13 06:44:49;;;;;;;79.80;48.10;;;;;;;6.39;89.38;101302.01;105034;1256;138839;-70
2024/03/13 06:47:16;;;;;;;83.40;52.10;;;;;;;6.42;89.27;101305.08;105097;1256;73012;-72
2024/03/13 06:49:46;;;;;;;87.10;51.60;;;;;;;6.38;89.08;101311.52;105277;1256;61187;-71
2024/03/13 06:52:13;;;;;;;85.10;52.50;;;;;;;6.37;89.30;101309.73;104951;1256;61318;-71
2024/03/13 06:54:40;;;;;;;89.30;54.00;;;;;;;6.40;89.38;101311.12;104997;1258;73994;-71
2024/03/13 06:57:09;;;;;;;83.70;52.00;;;;;;;6.38;89.26;101313.77;104844;1259;138842;-70
2024/03/13 06:59:36;;;;;;;77.40;48.90;;;;;;;6.34;89.26;101314.25;105089;1258;72932;-71
2024/03/13 07:02:04;;;;;;;73.50;45.40;;;;;;;6.32;89.25;101311.70;105282;1259;138943;-71
2024/03/13 07:04:30;;;;;;;74.10;46.20;;;;;;;6.30;89.19;101312.28;105071;1259;61230;-71
2024/03/13 07:07:00;;;;;;;77.30;45.60;;;;;;;6.31;89.36;101314.81;105018;1256;75685;-72
2024/03/13 07:09:27;;;;;;;78.00;47.10;;;;;;;6.33;89.38;101317.14;104810;1256;138899;-71
2024/03/13 07:11:54;;;;;;;78.00;46.80;;;;;;;6.35;89.51;101316.59;105074;1255;72679;-71
2024/03/13 07:14:21;;;;;;;83.30;49.20;;;;;;;6.32;89.30;101316.24;104932;1258;139070;-72
2024/03/13 07:16:48;;;;;;;64.80;41.90;;;;;;;6.31;89.38;101314.44;105153;1258;62113;-72
2024/03/13 07:19:14;;;;;;;65.40;40.80;;;;;;;6.30;89.31;101315.96;104978;1261;75129;-70
2024/03/13 07:21:41;;;;;;;64.80;40.30;;;;;;;6.32;89.54;101320.62;104949;1259;139055;-70
2024/03/13 07:24:08;;;;;;;57.40;38.60;;;;;;;6.39;89.72;101320.80;105083;1260;73304;-71
2024/03/13 07:26:35;;;;;;;86.70;50.00;;;;;;;6.43;89.57;101320.65;105048;1258;138872;-71
2024/03/13 07:29:01;;;;;;;87.60;50.00;;;;;;;6.48;89.54;101321.42;105175;1256;61597;-71
2024/03/13 07:31:29;;;;;;;72.30;43.30;;;;;;;6.55;89.70;101322.31;104924;1256;75209;-72
2024/03/13 07:33:56;;;;;;;62.20;38.70;;;;;;;6.63;89.73;101320.23;105507;1255;138770;-71
2024/03/13 07:36:23;;;;;;;62.20;37.60;;;;;;;6.69;89.71;101319.17;105419;1256;72681;-72
2024/03/13 07:38:50;;;;;;;62.40;38.20;;;;;;;6.72;89.47;101318.77;105018;1256;138656;-71
2024/03/13 07:41:16;;;;;;;65.00;40.20;;;;;;;6.70;89.27;101316.95;105188;1255;61263;-71
2024/03/13 07:43:43;;;;;;;72.80;43.30;;;;;;;6.69;89.14;101317.05;105136;1256;75079;-71
2024/03/13 07:46:11;;;;;;;64.20;40.80;;;;;;;6.68;89.05;101322.26;104953;1257;139056;-70
2024/03/13 07:48:38;;;;;;;70.50;38.70;;;;;;;6.68;89.09;101325.38;105329;1258;71391;-71
2024/03/13 07:51:06;;;;;;;66.50;43.80;;;;;;;6.74;89.38;101326.90;104937;1257;139584;-71
2024/03/13 07:53:33;;;;;;;63.30;38.30;;;;;;;6.81;89.44;101330.07;105339;1260;61211;-71
2024/03/13 07:56:00;;;;;;;71.00;42.70;;;;;;;6.85;89.27;101331.46;105968;1254;139688;-71
2024/03/13 07:58:27;;;;;;;74.50;45.20;;;;;;;6.83;88.89;101331.87;104971;1258;66757;-71
2024/03/13 08:00:54;;;;;;;61.50;34.60;;;;;;;6.81;88.81;101332.98;104839;1254;73361;-70
2024/03/13 08:03:20;;;;;;;67.30;42.30;;;;;;;6.79;88.89;101334.49;104783;1256;138870;-71
2024/03/13 08:05:51;;;;;;;56.20;34.40;;;;;;;6.82;88.94;101336.37;104794;1256;61238;-72
2024/03/13 08:08:18;;;;;;;55.50;32.10;;;;;;;6.88;89.07;101335.95;104815;1259;139427;-71
2024/03/13 08:10:44;;;;;;;61.80;35.10;;;;;;;6.95;89.15;101336.65;104940;1258;65777;-72
2024/03/13 08:13:11;;;;;;;59.00;34.70;;;;;;;6.96;88.86;101339.68;105823;1261;72363;-72
2024/03/13 08:15:39;;;;;;;63.10;36.00;;;;;;;6.98;88.83;101338.22;105663;1258;258588;-70
2024/03/13 08:18:09;;;;;;;60.70;35.10;;;;;;;7.00;88.78;101342.15;105892;1258;61301;-71
2024/03/13 08:20:36;;;;;;;60.90;36.00;;;;;;;7.07;88.94;101346.35;105086;1260;138776;-71
2024/03/13 08:23:04;;;;;;;68.10;37.80;;;;;;;7.12;88.90;101344.80;105064;1259;67550;-70
2024/03/13 08:25:30;;;;;;;68.40;42.00;;;;;;;7.13;88.70;101346.98;104967;1258;73352;-71
2024/03/13 08:27:58;;;;;;;65.10;40.00;;;;;;;7.10;88.53;101347.53;104966;1258;139062;-71
2024/03/13 08:30:26;;;;;;;70.80;40.20;;;;;;;7.12;88.71;101348.29;105374;1259;61154;-71
2024/03/13 08:32:53;;;;;;;72.70;42.80;;;;;;;7.15;88.70;101349.48;105326;1258;138824;-71
2024/03/13 08:35:21;;;;;;;125.40;93.00;;;;;;;7.16;88.69;101353.92;104881;1260;67220;-70
2024/03/13 08:37:48;;;;;;;94.40;60.10;;;;;;;7.14;88.47;101356.06;104861;1258;139395;-69
2024/03/13 08:40:16;;;;;;;105.40;77.20;;;;;;;7.13;88.60;101357.41;104936;1258;61507;-71
2024/03/13 08:42:45;;;;;;;126.20;89.90;;;;;;;7.10;88.34;101357.63;104982;1258;61245;-70
2024/03/13 08:45:13;;;;;;;95.80;66.90;;;;;;;7.08;88.48;101363.48;105583;1258;138840;-72
2024/03/13 08:47:40;;;;;;;100.10;70.70;;;;;;;7.07;88.52;101361.52;105957;1259;67175;-71
2024/03/13 08:50:07;;;;;;;80.30;51.90;;;;;;;7.09;88.56;101364.39;104917;1258;139044;-70
2024/03/13 08:52:36;;;;;;;72.10;45.80;;;;;;;7.15;88.82;101360.16;105034;1258;61234;-71
2024/03/13 08:55:05;;;;;;;69.20;41.90;;;;;;;7.25;88.88;101362.02;104906;1260;61196;-70
2024/03/13 08:57:32;;;;;;;74.60;40.40;;;;;;;7.30;88.86;101361.23;106126;1255;138793;-71
2024/03/13 08:59:58;;;;;;;69.50;42.10;;;;;;;7.36;88.76;101363.06;105022;1260;64587;-70
2024/03/13 09:02:26;;;;;;;63.10;39.40;;;;;;;7.45;88.85;101369.10;105733;1254;138857;-70
2024/03/13 09:04:54;;;;;;;69.50;40.90;;;;;;;7.53;88.76;101371.71;105686;1257;61353;-70
2024/03/13 09:07:20;;;;;;;66.40;38.60;;;;;;;7.65;88.95;101373.70;105542;1260;61324;-72
2024/03/13 09:09:47;;;;;;;61.30;36.40;;;;;;;7.80;89.02;101375.79;104949;1258;139491;-67
2024/03/13 09:12:15;;;;;;;63.30;36.30;;;;;;;7.92;88.91;101378.46;104960;1256;65503;-67
2024/03/13 09:14:42;;;;;;;63.70;37.90;;;;;;;8.05;88.73;101378.98;109012;1254;138755;-66
2024/03/13 09:17:09;;;;;;;69.10;38.40;;;;;;;8.15;88.60;101378.58;107269;1258;61228;-66
2024/03/13 09:19:37;;;;;;;62.80;36.30;;;;;;;8.22;88.39;101378.39;105070;1258;61114;-67
2024/03/13 09:22:04;;;;;;;60.50;37.20;;;;;;;8.29;88.03;101379.55;108885;1258;138907;-67
2024/03/13 09:24:31;;;;;;;62.90;37.40;;;;;;;8.29;87.78;101382.53;109039;1255;66281;-67
2024/03/13 09:26:58;;;;;;;60.60;36.10;;;;;;;8.29;87.51;101386.04;108853;1260;138828;-67
2024/03/13 09:29:25;;;;;;;66.00;38.00;;;;;;;8.31;87.35;101389.98;109090;1259;58993;-67
2024/03/13 09:31:52;;;;;;;66.40;37.80;;;;;;;8.34;87.20;101390.27;107462;1257;139274;-66
2024/03/13 09:34:19;;;;;;;61.10;36.30;;;;;;;8.35;87.09;101393.15;104821;1261;73207;-66
2024/03/13 09:36:45;;;;;;;60.30;36.50;;;;;;;8.38;87.04;101394.29;105071;1258;66780;-66
2024/03/13 09:39:13;;;;;;;66.80;38.40;;;;;;;8.40;86.96;101397.52;104780;1257;138870;-67
2024/03/13 09:41:40;;;;;;;65.20;38.30;;;;;;;8.42;87.05;101401.85;104953;1257;61349;-67
2024/03/13 09:44:06;;;;;;;68.60;40.00;;;;;;;8.39;86.77;101405.03;104987;1260;138963;-66
2024/03/13 09:46:33;;;;;;;67.50;39.60;;;;;;;8.35;86.61;101405.55;104978;1260;73819;-66
2024/03/13 09:49:01;;;;;;;69.60;40.20;;;;;;;8.34;86.82;101413.21;104655;1261;65623;-67
2024/03/13 09:51:28;;;;;;;66.10;39.10;;;;;;;8.33;86.75;101414.21;104907;1260;138827;-67
2024/03/13 09:53:55;;;;;;;72.60;41.40;;;;;;;8.29;86.59;101413.85;109013;1259;59022;-67
2024/03/13 09:56:22;;;;;;;67.70;40.30;;;;;;;8.24;86.39;101416.91;108947;1254;138780;-67
2024/03/13 09:58:50;;;;;;;65.80;40.80;;;;;;;8.20;86.37;101420.41;109042;1258;74785;-66
2024/03/13 10:01:20;;;;;;;67.20;39.20;;;;;;;8.19;86.42;101421.43;109060;1256;64042;-66
2024/03/13 10:03:53;;;;;;;69.90;40.60;;;;;;;8.23;86.59;101421.41;108892;1254;139463;-66
2024/03/13 10:06:20;;;;;;;68.20;39.60;;;;;;;8.26;86.53;101424.19;108853;1256;60110;-66
2024/03/13 10:08:47;;;;;;;62.60;38.00;;;;;;;8.30;86.43;101423.16;109020;1259;138577;-67
2024/03/13 10:11:14;;;;;;;65.60;38.70;;;;;;;8.36;86.49;101423.27;106602;1260;74487;-66
2024/03/13 10:13:43;;;;;;;61.20;37.20;;;;;;;8.45;86.46;101421.23;104991;1259;65451;-66
2024/03/13 10:16:10;;;;;;;57.40;37.10;;;;;;;8.55;86.42;101419.56;108732;1257;138813;-66
2024/03/13 10:18:41;;;;;;;53.20;34.30;;;;;;;8.67;86.40;101414.63;106681;1257;61512;-67
2024/03/13 10:21:08;;;;;;;58.20;34.30;;;;;;;8.75;86.16;101417.80;109006;1254;139141;-66
2024/03/13 10:23:38;;;;;;;55.30;35.50;;;;;;;8.84;86.18;101418.54;109074;1255;74721;-67
2024/03/13 10:26:05;;;;;;;56.10;35.00;;;;;;;8.95;86.08;101417.08;108523;1255;138325;-67
2024/03/13 10:28:32;;;;;;;58.20;36.40;;;;;;;9.03;85.91;101413.05;105001;1257;73104;-66
2024/03/13 10:31:00;;;;;;;57.80;36.60;;;;;;;9.09;85.66;101417.33;104889;1254;61424;-66
2024/03/13 10:33:28;;;;;;;64.60;41.10;;;;;;;9.12;85.45;101421.11;104866;1258;137973;-66
2024/03/13 10:35:55;;;;;;;78.00;50.80;;;;;;;9.13;85.43;101417.83;104876;1260;73080;-66
2024/03/13 10:38:21;;;;;;;76.30;47.30;;;;;;;9.08;85.11;101420.45;105020;1259;138952;-66
2024/03/13 10:40:48;;;;;;;73.30;45.40;;;;;;;9.00;84.91;101422.73;104789;1263;73064;-66
2024/03/13 10:43:15;;;;;;;70.90;42.70;;;;;;;8.97;85.07;101423.64;104731;1261;61602;-66
2024/03/13 10:45:47;;;;;;;64.10;40.00;;;;;;;9.01;85.25;101430.30;104805;1260;139252;-68
2024/03/13 10:48:14;;;;;;;60.30;37.20;;;;;;;9.10;85.36;101422.44;106310;1255;74204;-67
2024/03/13 10:50:43;;;;;;;62.70;37.30;;;;;;;9.13;85.17;101424.50;104729;1263;138770;-68
2024/03/13 10:53:10;;;;;;;59.40;36.60;;;;;;;9.13;84.91;101423.27;105595;1260;80503;-66
2024/03/13 10:55:37;;;;;;;59.60;34.50;;;;;;;9.10;84.71;101421.92;104886;1259;61327;-66
2024/03/13 10:58:04;;;;;;;58.20;34.30;;;;;;;9.10;84.76;101420.85;108895;1257;138574;-67
2024/03/13 11:00:31;;;;;;;57.20;34.70;;;;;;;9.11;84.71;101422.46;108992;1254;74018;-67
2024/03/13 11:02:58;;;;;;;52.70;33.40;;;;;;;9.10;84.75;101420.14;108972;1254;138639;-67
2024/03/13 11:05:25;;;;;;;54.40;32.10;;;;;;;9.07;84.52;101416.89;107478;1260;71288;-66
2024/03/13 11:07:55;;;;;;;55.30;33.50;;;;;;;8.99;84.28;101419.88;104811;1257;138469;-65
2024/03/13 11:10:21;;;;;;;54.40;34.60;;;;;;;8.90;84.33;101420.39;108387;1254;60498;-71
2024/03/13 11:12:51;;;;;;;59.10;33.90;;;;;;;8.86;84.31;101418.64;105169;1268;75355;-72
2024/03/13 11:15:23;;;;;;;60.20;34.60;;;;;;;8.85;84.50;101415.43;105020;1254;138824;-72
2024/03/13 11:17:52;;;;;;;51.10;29.70;;;;;;;8.87;84.55;101413.23;105162;1254;72899;-66
2024/03/13 11:20:21;;;;;;;50.80;30.20;;;;;;;8.86;84.45;101416.55;108942;1256;139703;-67
2024/03/13 11:22:54;;;;;;;50.30;30.20;;;;;;;8.87;84.60;101417.11;107597;1257;60601;-71
2024/03/13 11:25:21;;;;;;;49.10;28.80;;;;;;;8.90;84.52;101418.80;105318;1260;75131;-71